createdAt,value
2022-09-13T00:00:51.682Z,7.30
2022-09-13T00:03:41.139Z,6.70
2022-09-13T00:06:16.048Z,7.00
2022-09-13T00:08:48.484Z,6.90
2022-09-13T00:11:23.419Z,8.30
2022-09-13T00:13:58.489Z,8.40
2022-09-13T00:16:32.402Z,9.20
2022-09-13T00:19:04.441Z,8.80
2022-09-13T00:21:36.819Z,8.90
2022-09-13T00:24:09.593Z,8.30
2022-09-13T00:26:41.435Z,7.10
2022-09-13T00:29:13.276Z,6.40
2022-09-13T00:31:45.169Z,6.20
2022-09-13T00:34:17.722Z,6.60
2022-09-13T00:36:49.656Z,6.90
2022-09-13T00:39:22.012Z,6.10
2022-09-13T00:41:54.058Z,6.20
2022-09-13T00:44:55.183Z,6.70
2022-09-13T00:47:33.238Z,6.70
2022-09-13T00:50:12.519Z,6.20
2022-09-13T00:52:48.383Z,7.50
2022-09-13T00:55:25.552Z,7.30
2022-09-13T00:58:01.534Z,6.60
2022-09-13T01:00:33.853Z,7.00
2022-09-13T01:03:11.992Z,7.20
2022-09-13T01:05:48.800Z,8.20
2022-09-13T01:08:23.174Z,7.80
2022-09-13T01:10:58.294Z,7.40
2022-09-13T01:13:35.118Z,8.30
2022-09-13T01:16:07.964Z,8.40
2022-09-13T01:18:40.330Z,8.60
2022-09-13T01:21:49.011Z,7.40
2022-09-13T01:24:48.219Z,8.00
2022-09-13T01:27:33.907Z,8.90
2022-09-13T01:30:19.251Z,9.10
2022-09-13T01:33:08.047Z,9.80
2022-09-13T01:35:51.931Z,9.80
2022-09-13T01:38:35.815Z,9.20
2022-09-13T01:41:21.481Z,9.40
2022-09-13T01:44:01.532Z,9.40
2022-09-13T01:46:40.284Z,8.20
2022-09-13T01:49:21.514Z,8.40
2022-09-13T01:52:00.653Z,9.20
2022-09-13T01:54:39.604Z,9.60
2022-09-13T01:57:17.789Z,9.40
2022-09-13T01:59:54.601Z,9.40
2022-09-13T02:02:36.900Z,8.10
2022-09-13T02:05:28.856Z,9.10
2022-09-13T02:08:06.299Z,8.10
2022-09-13T02:10:42.837Z,8.50
2022-09-13T02:13:23.837Z,9.00
2022-09-13T02:16:00.927Z,8.10
2022-09-13T02:18:36.943Z,8.50
2022-09-13T02:21:13.740Z,8.30
2022-09-13T02:23:50.885Z,8.00
2022-09-13T02:26:25.354Z,8.10
2022-09-13T02:29:00.524Z,8.60
2022-09-13T02:31:38.957Z,8.80
2022-09-13T02:34:16.407Z,9.00
2022-09-13T02:36:50.411Z,9.30
2022-09-13T02:39:25.917Z,8.10
2022-09-13T02:42:01.734Z,8.60
2022-09-13T02:44:38.374Z,8.20
2022-09-13T02:47:21.638Z,7.70
2022-09-13T02:50:03.655Z,8.10
2022-09-13T02:52:46.176Z,7.00
2022-09-13T02:55:25.983Z,8.50
2022-09-13T02:58:06.049Z,8.40
2022-09-13T03:00:38.193Z,8.00
2022-09-13T03:03:13.824Z,9.80
2022-09-13T03:05:46.376Z,10.90
2022-09-13T03:08:20.111Z,8.70
2022-09-13T03:11:04.983Z,8.10
2022-09-13T03:13:56.218Z,7.50
2022-09-13T03:16:43.809Z,7.40
2022-09-13T03:19:40.009Z,7.10
2022-09-13T03:22:25.900Z,7.00
2022-09-13T03:25:08.397Z,7.80
2022-09-13T03:27:53.439Z,7.10
2022-09-13T03:30:25.389Z,7.00
2022-09-13T03:33:04.827Z,7.40
2022-09-13T03:35:42.538Z,7.00
2022-09-13T03:38:18.274Z,7.00
2022-09-13T03:40:54.843Z,7.80
2022-09-13T03:43:35.777Z,7.10
2022-09-13T03:46:12.225Z,7.20
2022-09-13T03:48:46.436Z,6.60
2022-09-13T03:51:18.656Z,7.40
2022-09-13T03:53:56.385Z,8.00
2022-09-13T03:56:28.291Z,7.60
2022-09-13T03:59:00.079Z,7.90
2022-09-13T04:01:32.333Z,8.00
2022-09-13T04:04:04.375Z,7.60
2022-09-13T04:06:36.521Z,6.90
2022-09-13T04:09:08.339Z,7.90
2022-09-13T04:11:42.056Z,8.30
2022-09-13T04:14:18.553Z,7.80
2022-09-13T04:16:50.555Z,8.30
2022-09-13T04:19:23.385Z,7.90
2022-09-13T04:21:57.045Z,8.00
2022-09-13T04:24:31.233Z,8.60
2022-09-13T04:27:06.678Z,8.00
2022-09-13T04:29:39.016Z,8.10
2022-09-13T04:32:11.181Z,8.50
2022-09-13T04:34:43.196Z,8.80
2022-09-13T04:37:15.018Z,9.50
2022-09-13T04:39:47.030Z,11.40
2022-09-13T04:42:19.794Z,10.90
2022-09-13T04:44:51.562Z,11.50
2022-09-13T04:47:23.656Z,11.70
2022-09-13T04:49:55.437Z,14.90
2022-09-13T04:52:27.346Z,14.10
2022-09-13T04:55:01.665Z,13.80
2022-09-13T04:57:34.213Z,13.30
2022-09-13T05:00:07.976Z,13.70
2022-09-13T05:02:39.912Z,13.10
2022-09-13T05:05:12.348Z,13.30
2022-09-13T05:07:44.338Z,12.60
2022-09-13T05:10:19.388Z,12.90
2022-09-13T05:12:51.534Z,11.50
2022-09-13T05:15:23.432Z,11.00
2022-09-13T05:17:55.279Z,11.10
2022-09-13T05:20:27.093Z,11.30
2022-09-13T05:22:59.562Z,10.50
2022-09-13T05:25:31.382Z,11.60
2022-09-13T05:28:03.521Z,11.00
2022-09-13T05:30:42.104Z,10.50
2022-09-13T05:33:14.175Z,10.80
2022-09-13T05:35:46.171Z,10.80
2022-09-13T05:38:18.025Z,10.60
2022-09-13T05:40:55.145Z,10.50
2022-09-13T05:43:28.669Z,9.70
2022-09-13T05:46:05.679Z,10.10
2022-09-13T05:48:37.870Z,10.10
2022-09-13T05:51:12.252Z,10.60
2022-09-13T05:53:45.977Z,10.20
2022-09-13T05:56:20.488Z,11.20
2022-09-13T05:58:55.081Z,10.70
2022-09-13T06:01:29.446Z,10.50
2022-09-13T06:04:01.841Z,10.20
2022-09-13T06:06:33.599Z,10.40
2022-09-13T06:09:06.959Z,10.80
2022-09-13T06:11:38.917Z,10.00
2022-09-13T06:14:11.165Z,9.50
2022-09-13T06:16:42.982Z,10.40
2022-09-13T06:19:15.163Z,10.50
2022-09-13T06:21:47.076Z,10.50
2022-09-13T06:24:18.830Z,10.80
2022-09-13T06:26:51.001Z,10.30
2022-09-13T06:29:22.883Z,11.00
2022-09-13T06:31:55.089Z,10.30
2022-09-13T06:34:31.096Z,10.50
2022-09-13T06:37:04.276Z,11.40
2022-09-13T06:39:36.325Z,11.20
2022-09-13T06:42:08.669Z,11.80
2022-09-13T06:44:46.073Z,11.80
2022-09-13T06:47:18.033Z,11.50
2022-09-13T06:49:50.352Z,11.40
2022-09-13T06:52:22.236Z,11.20
2022-09-13T06:54:54.254Z,11.60
2022-09-13T06:57:26.244Z,11.80
2022-09-13T06:59:57.993Z,12.30
2022-09-13T07:02:29.878Z,11.30
2022-09-13T07:05:01.923Z,11.60
2022-09-13T07:07:34.108Z,12.50
2022-09-13T07:10:07.401Z,12.60
2022-09-13T07:12:41.236Z,12.20
2022-09-13T07:15:14.404Z,12.50
2022-09-13T07:17:46.213Z,12.70
2022-09-13T07:20:18.211Z,12.60
2022-09-13T07:22:50.340Z,12.20
2022-09-13T07:25:22.671Z,12.30
2022-09-13T07:27:54.618Z,13.50
2022-09-13T07:30:27.009Z,12.30
2022-09-13T07:32:58.972Z,13.20
2022-09-13T07:35:30.970Z,12.90
2022-09-13T07:38:02.929Z,12.70
2022-09-13T07:40:36.837Z,13.10
2022-09-13T07:43:08.701Z,13.90
2022-09-13T07:45:40.597Z,13.60
2022-09-13T07:48:12.552Z,14.00
2022-09-13T07:50:44.411Z,14.40
2022-09-13T07:53:16.272Z,13.50
2022-09-13T07:55:48.235Z,13.60
2022-09-13T07:58:20.501Z,13.20
2022-09-13T08:00:52.535Z,13.40
2022-09-13T08:03:24.354Z,12.40
2022-09-13T08:05:56.344Z,13.80
2022-09-13T08:08:28.407Z,12.60
2022-09-13T08:11:01.431Z,13.10
2022-09-13T08:13:34.294Z,13.30
2022-09-13T08:16:08.270Z,13.10
2022-09-13T08:18:44.056Z,12.20
2022-09-13T08:21:16.717Z,12.50
2022-09-13T08:23:48.989Z,13.20
2022-09-13T08:26:21.155Z,13.90
2022-09-13T08:28:59.049Z,15.00
2022-09-13T08:31:32.075Z,13.30
2022-09-13T08:34:04.004Z,12.90
2022-09-13T08:36:36.990Z,12.10
2022-09-13T08:39:10.198Z,12.90
2022-09-13T08:42:21.135Z,10.50
2022-09-13T08:44:57.654Z,11.70
2022-09-13T08:47:37.142Z,10.10
2022-09-13T08:50:18.371Z,9.20
2022-09-13T08:53:03.882Z,9.50
2022-09-13T08:55:47.021Z,9.50
2022-09-13T08:58:35.125Z,11.50
2022-09-13T09:01:14.844Z,9.90
2022-09-13T09:03:53.033Z,9.20
2022-09-13T09:06:25.528Z,9.20
2022-09-13T09:09:02.661Z,9.30
2022-09-13T09:11:43.119Z,8.70
2022-09-13T09:14:25.789Z,9.10
2022-09-13T09:17:04.192Z,9.70
2022-09-13T09:19:40.938Z,9.30
2022-09-13T09:22:18.475Z,8.90
2022-09-13T09:24:54.674Z,10.00
2022-09-13T09:27:27.209Z,10.40
2022-09-13T09:29:59.949Z,10.30
2022-09-13T09:32:48.582Z,8.60
2022-09-13T09:35:29.383Z,8.60
2022-09-13T09:38:31.528Z,7.80
2022-09-13T09:41:06.881Z,7.50
2022-09-13T09:43:45.749Z,7.80
2022-09-13T09:46:22.319Z,7.20
2022-09-13T09:48:58.411Z,6.40
2022-09-13T09:51:32.330Z,6.50
2022-09-13T09:54:06.502Z,5.80
2022-09-13T09:56:38.698Z,6.30
2022-09-13T09:59:29.554Z,5.70
2022-09-13T10:02:04.994Z,5.50
2022-09-13T10:04:37.226Z,5.50
2022-09-13T10:07:27.218Z,5.70
2022-09-13T10:10:05.942Z,6.20
2022-09-13T10:12:41.049Z,5.60
2022-09-13T10:15:20.515Z,5.80
2022-09-13T10:18:40.030Z,6.30
2022-09-13T10:21:21.455Z,5.50
2022-09-13T10:23:59.761Z,5.60
2022-09-13T10:26:36.529Z,5.60
2022-09-13T10:29:14.445Z,5.50
2022-09-13T10:31:50.156Z,5.20
2022-09-13T10:34:26.176Z,5.60
2022-09-13T10:37:01.386Z,6.00
2022-09-13T10:39:37.548Z,5.10
2022-09-13T10:42:11.537Z,5.20
2022-09-13T10:44:47.538Z,5.40
2022-09-13T10:47:26.111Z,4.90
2022-09-13T10:50:00.434Z,5.50
2022-09-13T10:52:35.687Z,5.10
2022-09-13T10:55:37.568Z,5.70
2022-09-13T10:58:19.858Z,5.70
2022-09-13T11:01:15.467Z,5.90
2022-09-13T11:04:35.181Z,5.60
2022-09-13T11:07:28.221Z,5.90
2022-09-13T11:10:09.763Z,6.10
2022-09-13T11:12:47.881Z,5.50
2022-09-13T11:15:31.010Z,5.70
2022-09-13T11:18:34.288Z,6.20
2022-09-13T11:21:18.085Z,6.00
2022-09-13T11:24:17.940Z,6.90
2022-09-13T11:27:01.387Z,6.30
2022-09-13T11:29:45.998Z,6.30
2022-09-13T11:32:32.637Z,5.70
2022-09-13T11:35:28.151Z,5.80
2022-09-13T11:38:14.165Z,5.50
2022-09-13T11:40:59.893Z,6.20
2022-09-13T11:43:49.137Z,5.50
2022-09-13T11:46:32.414Z,5.50
2022-09-13T11:49:28.295Z,5.70
2022-09-13T11:52:10.599Z,5.50
2022-09-13T11:54:56.607Z,4.80
2022-09-13T11:57:37.270Z,5.70
2022-09-13T12:00:22.119Z,5.10
2022-09-13T12:03:04.594Z,4.70
2022-09-13T12:05:42.746Z,4.50
2022-09-13T12:08:19.656Z,5.30
2022-09-13T12:10:55.363Z,5.80
2022-09-13T12:13:31.231Z,5.30
2022-09-13T12:16:06.155Z,5.30
2022-09-13T12:18:44.682Z,4.60
2022-09-13T12:21:23.117Z,4.80
2022-09-13T12:24:02.848Z,4.80
2022-09-13T12:26:41.173Z,4.90
2022-09-13T12:29:20.466Z,5.10
2022-09-13T12:31:54.159Z,4.80
2022-09-13T12:34:32.601Z,4.90
2022-09-13T12:37:28.300Z,4.70
2022-09-13T12:40:37.247Z,4.90
2022-09-13T12:43:37.389Z,4.80
2022-09-13T12:46:27.256Z,5.30
2022-09-13T12:49:43.794Z,5.00
2022-09-13T12:52:38.465Z,5.30
2022-09-13T12:55:48.708Z,5.00
2022-09-13T12:58:41.973Z,4.90
2022-09-13T13:01:18.465Z,4.90
2022-09-13T13:03:56.256Z,5.40
2022-09-13T13:06:34.669Z,4.90
2022-09-13T13:09:28.082Z,5.40
2022-09-13T13:12:01.353Z,5.90
2022-09-13T13:14:53.760Z,5.60
2022-09-13T13:17:40.738Z,5.50
2022-09-13T13:20:48.943Z,5.10
2022-09-13T13:23:25.556Z,6.10
2022-09-13T13:26:15.100Z,5.90
2022-09-13T13:29:15.785Z,6.10
2022-09-13T13:32:13.097Z,5.90
2022-09-13T13:34:48.166Z,5.80
2022-09-13T13:37:33.436Z,6.00
2022-09-13T13:40:29.324Z,6.00
2022-09-13T13:43:32.382Z,5.30
2022-09-13T13:46:32.285Z,5.40
2022-09-13T13:49:46.566Z,5.50
2022-09-13T13:52:40.873Z,5.20
2022-09-13T13:55:42.831Z,4.90
2022-09-13T13:58:40.107Z,5.50
2022-09-13T14:01:29.301Z,5.30
2022-09-13T14:04:45.059Z,4.90
2022-09-13T14:07:34.446Z,7.40
2022-09-13T14:10:15.158Z,6.00
2022-09-13T14:13:03.984Z,5.20
2022-09-13T14:15:52.809Z,4.90
2022-09-13T14:18:43.394Z,5.30
2022-09-13T14:21:24.914Z,6.80
2022-09-13T14:27:04.926Z,5.50
2022-09-13T14:29:39.341Z,5.60
2022-09-13T14:32:17.325Z,6.30
2022-09-13T14:34:59.329Z,6.60
2022-09-13T14:37:34.985Z,5.30
2022-09-13T14:40:19.189Z,5.10
2022-09-13T14:42:52.449Z,5.30
2022-09-13T14:45:28.605Z,5.10
2022-09-13T14:48:07.657Z,5.10
2022-09-13T14:50:46.995Z,5.00
2022-09-13T14:53:22.247Z,5.10
2022-09-13T14:55:57.302Z,5.20
2022-09-13T14:58:33.801Z,5.10
2022-09-13T15:01:10.373Z,5.00
2022-09-13T15:03:45.747Z,5.90
2022-09-13T15:06:26.536Z,6.90
2022-09-13T15:09:02.178Z,5.40
2022-09-13T15:11:37.108Z,6.00
2022-09-13T15:14:31.247Z,6.00
2022-09-13T15:17:11.051Z,6.70
2022-09-13T15:19:45.366Z,6.10
2022-09-13T15:22:33.310Z,6.30
2022-09-13T15:25:06.638Z,5.90
2022-09-13T15:27:48.708Z,5.80
2022-09-13T15:30:26.900Z,7.40
2022-09-13T15:33:23.236Z,6.30
2022-09-13T15:36:14.082Z,5.90
2022-09-13T15:39:04.972Z,5.70
2022-09-13T15:41:38.016Z,5.50
2022-09-13T15:44:10.906Z,6.40
2022-09-13T15:46:48.672Z,6.60
2022-09-13T15:49:38.912Z,6.50
2022-09-13T15:52:11.408Z,6.90
2022-09-13T15:54:44.426Z,7.30
2022-09-13T15:57:22.579Z,6.90
2022-09-13T15:59:56.263Z,7.10
2022-09-13T16:02:32.514Z,7.50
2022-09-13T16:05:04.625Z,7.60
2022-09-13T16:07:36.990Z,7.40
2022-09-13T16:10:14.781Z,7.40
2022-09-13T16:12:47.287Z,6.70
2022-09-13T16:15:19.796Z,7.40
2022-09-13T16:17:54.255Z,7.50
2022-09-13T16:20:27.799Z,7.50
2022-09-13T16:22:59.633Z,7.00
2022-09-13T16:25:31.753Z,7.70
2022-09-13T16:28:03.989Z,8.60
2022-09-13T16:30:36.901Z,7.90
2022-09-13T16:33:09.123Z,8.90
2022-09-13T16:35:41.767Z,8.30
2022-09-13T16:38:17.444Z,8.30
2022-09-13T16:40:49.218Z,8.60
2022-09-13T16:43:21.355Z,8.70
2022-09-13T16:45:53.346Z,8.70
2022-09-13T16:48:25.370Z,9.80
2022-09-13T16:51:02.302Z,10.30
2022-09-13T16:53:36.342Z,10.00
2022-09-13T16:56:12.734Z,9.90
2022-09-13T16:58:46.781Z,10.00
2022-09-13T17:01:20.754Z,9.70
2022-09-13T17:03:54.977Z,9.10
2022-09-13T17:06:28.487Z,8.60
2022-09-13T17:09:03.526Z,9.10
2022-09-13T17:11:38.032Z,9.30
2022-09-13T17:14:12.810Z,10.70
2022-09-13T17:16:47.847Z,9.20
2022-09-13T17:19:23.368Z,9.20
2022-09-13T17:21:58.030Z,10.10
2022-09-13T17:24:32.295Z,9.80
2022-09-13T17:27:07.243Z,9.60
2022-09-13T17:29:39.903Z,10.00
2022-09-13T17:32:12.194Z,9.20
2022-09-13T17:35:12.494Z,9.50
2022-09-13T17:37:44.951Z,10.30
2022-09-13T17:40:18.718Z,10.90
2022-09-13T17:42:51.912Z,12.30
2022-09-13T17:45:25.375Z,10.80
2022-09-13T17:47:59.476Z,10.60
2022-09-13T17:50:32.126Z,11.00
2022-09-13T17:53:05.691Z,10.10
2022-09-13T17:55:38.371Z,11.40
2022-09-13T17:58:10.939Z,11.40
2022-09-13T18:00:44.952Z,10.90
2022-09-13T18:03:17.656Z,11.60
2022-09-13T18:05:56.722Z,16.10
2022-09-13T18:08:31.176Z,10.60
2022-09-13T18:11:14.744Z,12.00
2022-09-13T18:13:49.723Z,11.30
2022-09-13T18:16:24.526Z,12.30
2022-09-13T18:18:58.461Z,12.60
2022-09-13T18:21:34.579Z,12.40
2022-09-13T18:24:08.814Z,11.70
2022-09-13T18:26:41.734Z,12.10
2022-09-13T18:29:15.896Z,12.60
2022-09-13T18:31:48.486Z,10.40
2022-09-13T18:34:24.614Z,8.20
2022-09-13T18:37:00.170Z,7.00
2022-09-13T18:39:32.881Z,6.40
2022-09-13T18:42:05.835Z,5.90
2022-09-13T18:44:38.821Z,4.60
2022-09-13T18:47:14.778Z,5.10
2022-09-13T18:49:47.381Z,4.80
2022-09-13T18:52:20.157Z,4.80
2022-09-13T18:54:53.060Z,4.60
2022-09-13T18:57:25.770Z,4.20
2022-09-13T19:00:00.294Z,5.60
2022-09-13T19:02:33.099Z,6.80
2022-09-13T19:05:07.095Z,6.30
2022-09-13T19:07:45.445Z,6.20
2022-09-13T19:10:18.161Z,6.40
2022-09-13T19:12:50.831Z,7.10
2022-09-13T19:15:24.329Z,8.20
2022-09-13T19:17:56.913Z,7.70
2022-09-13T19:20:29.791Z,8.40
2022-09-13T19:23:03.599Z,9.60
2022-09-13T19:25:38.769Z,9.10
2022-09-13T19:28:11.292Z,9.40
2022-09-13T19:30:43.921Z,9.50
2022-09-13T19:33:17.478Z,10.40
2022-09-13T19:35:50.428Z,9.90
2022-09-13T19:38:22.886Z,10.50
2022-09-13T19:41:01.636Z,10.10
2022-09-13T19:43:36.177Z,10.10
2022-09-13T19:46:10.832Z,10.80
2022-09-13T19:48:44.806Z,10.20
2022-09-13T19:51:18.883Z,10.80
2022-09-13T19:53:57.376Z,10.60
2022-09-13T19:56:32.879Z,11.20
2022-09-13T19:59:06.003Z,11.30
2022-09-13T20:01:41.283Z,12.00
2022-09-13T20:04:19.147Z,12.00
2022-09-13T20:06:52.991Z,11.70
2022-09-13T20:09:25.019Z,13.10
2022-09-13T20:12:00.840Z,11.70
2022-09-13T20:14:34.432Z,13.40
2022-09-13T20:17:07.245Z,14.00
2022-09-13T20:19:43.559Z,13.40
2022-09-13T20:22:18.672Z,13.00
2022-09-13T20:24:50.454Z,13.30
2022-09-13T20:27:22.438Z,13.40
2022-09-13T20:29:55.946Z,13.20
2022-09-13T20:32:28.068Z,14.90
2022-09-13T20:35:00.638Z,15.80
2022-09-13T20:37:32.474Z,15.70
2022-09-13T20:40:04.960Z,16.50
2022-09-13T20:42:39.813Z,16.70
2022-09-13T20:45:13.069Z,15.60
2022-09-13T20:47:45.195Z,18.20
2022-09-13T20:50:18.561Z,18.20
2022-09-13T20:52:50.523Z,18.90
2022-09-13T20:55:22.417Z,19.00
2022-09-13T21:01:07.826Z,18.00
2022-09-13T21:03:41.482Z,19.40
2022-09-13T21:06:13.690Z,18.00
2022-09-13T21:08:49.051Z,19.40
2022-09-13T21:11:23.048Z,18.40
2022-09-13T21:13:56.676Z,18.40
2022-09-13T21:16:31.861Z,17.10
2022-09-13T21:19:04.618Z,17.60
2022-09-13T21:22:14.708Z,18.10
2022-09-13T21:24:49.104Z,18.60
2022-09-13T21:27:29.444Z,16.40
2022-09-13T21:30:15.274Z,17.70
2022-09-13T21:32:54.139Z,19.90
2022-09-13T21:35:26.120Z,19.00
2022-09-13T21:37:58.121Z,18.80
2022-09-13T21:40:29.974Z,20.20
2022-09-13T21:43:01.849Z,19.40
2022-09-13T21:45:33.849Z,20.10
2022-09-13T21:48:06.330Z,21.40
2022-09-13T21:50:38.193Z,21.20
2022-09-13T21:53:10.057Z,20.90
2022-09-13T21:55:42.913Z,22.30
2022-09-13T21:58:14.877Z,20.70
2022-09-13T22:00:46.716Z,20.30
2022-09-13T22:03:19.189Z,20.50
2022-09-13T22:05:58.093Z,20.30
2022-09-13T22:08:33.320Z,19.60
2022-09-13T22:11:10.829Z,21.00
2022-09-13T22:13:45.992Z,18.60
2022-09-13T22:16:20.289Z,20.30
2022-09-13T22:18:54.425Z,19.90
2022-09-13T22:21:28.304Z,19.50
2022-09-13T22:24:00.634Z,19.20
2022-09-13T22:26:35.268Z,19.30
2022-09-13T22:29:07.980Z,19.40
2022-09-13T22:31:41.844Z,20.30
2022-09-13T22:34:16.913Z,19.20
2022-09-13T22:36:49.490Z,20.50
2022-09-13T22:39:21.301Z,20.50
2022-09-13T22:41:53.588Z,19.70
2022-09-13T22:44:25.345Z,20.50
2022-09-13T22:47:00.465Z,20.10
2022-09-13T22:49:32.421Z,19.10
2022-09-13T22:52:04.817Z,20.00
2022-09-13T22:54:36.603Z,19.50
2022-09-13T22:57:08.520Z,19.40
2022-09-13T22:59:40.393Z,18.90
2022-09-13T23:02:12.384Z,19.70
2022-09-13T23:04:44.851Z,19.50
2022-09-13T23:07:16.657Z,20.80
2022-09-13T23:09:49.003Z,19.80
2022-09-13T23:12:21.047Z,20.70
2022-09-13T23:14:52.950Z,20.20
2022-09-13T23:17:24.835Z,19.50
2022-09-13T23:19:56.691Z,21.00
2022-09-13T23:22:28.488Z,19.50
2022-09-13T23:25:00.476Z,19.20
2022-09-13T23:27:32.341Z,19.00
2022-09-13T23:30:04.505Z,19.50
2022-09-13T23:32:36.341Z,19.60
2022-09-13T23:35:09.783Z,19.30
2022-09-13T23:37:41.629Z,19.90
2022-09-13T23:40:15.037Z,21.40
2022-09-13T23:42:46.943Z,18.60
2022-09-13T23:45:18.929Z,19.80
2022-09-13T23:47:50.896Z,18.90
2022-09-13T23:50:22.826Z,19.10
2022-09-13T23:52:55.111Z,19.10
2022-09-13T23:55:26.861Z,18.60
2022-09-13T23:57:58.658Z,19.80
